createdAt,value
2022-07-26T00:01:52.592Z,12.25
2022-07-26T00:04:23.373Z,11.57
2022-07-26T00:06:53.951Z,12.03
2022-07-26T00:09:24.517Z,11.65
2022-07-26T00:11:55.043Z,11.65
2022-07-26T00:14:25.594Z,12.45
2022-07-26T00:16:56.164Z,11.38
2022-07-26T00:19:26.786Z,12.60
2022-07-26T00:22:14.992Z,11.90
2022-07-26T00:24:45.525Z,11.60
2022-07-26T00:27:16.003Z,11.53
2022-07-26T00:29:46.552Z,11.43
2022-07-26T00:32:17.164Z,11.33
2022-07-26T00:34:47.717Z,11.20
2022-07-26T00:37:20.632Z,11.25
2022-07-26T00:39:50.783Z,11.55
2022-07-26T00:42:21.360Z,9.68
2022-07-26T00:44:51.960Z,10.65
2022-07-26T00:47:22.439Z,10.93
2022-07-26T00:49:53.119Z,9.73
2022-07-26T00:52:23.611Z,10.32
2022-07-26T00:54:56.272Z,10.50
2022-07-26T00:57:26.826Z,10.43
2022-07-26T00:59:57.409Z,10.15
2022-07-26T01:02:28.536Z,9.23
2022-07-26T01:04:59.118Z,9.35
2022-07-26T01:07:30.792Z,9.00
2022-07-26T01:10:02.284Z,8.95
2022-07-26T01:12:33.051Z,9.38
2022-07-26T01:15:03.552Z,8.48
2022-07-26T01:17:34.338Z,8.98
2022-07-26T01:20:08.290Z,8.75
2022-07-26T01:22:40.409Z,8.25
2022-07-26T01:25:11.984Z,8.10
2022-07-26T01:27:43.564Z,7.97
2022-07-26T01:30:16.138Z,8.38
2022-07-26T01:32:46.517Z,7.50
2022-07-26T01:35:17.024Z,7.65
2022-07-26T01:37:47.530Z,7.58
2022-07-26T01:40:18.073Z,7.80
2022-07-26T01:42:48.639Z,8.38
2022-07-26T01:45:19.463Z,8.43
2022-07-26T01:47:51.192Z,8.80
2022-07-26T01:50:21.959Z,9.05
2022-07-26T01:52:52.466Z,9.28
2022-07-26T01:55:23.117Z,8.95
2022-07-26T01:57:53.634Z,9.05
2022-07-26T02:00:24.286Z,10.40
2022-07-26T02:02:55.048Z,9.60
2022-07-26T02:05:25.636Z,8.83
2022-07-26T02:07:56.166Z,8.53
2022-07-26T02:10:28.322Z,8.70
2022-07-26T02:12:58.869Z,8.63
2022-07-26T02:15:29.566Z,8.13
2022-07-26T02:18:00.087Z,8.20
2022-07-26T02:20:32.176Z,8.55
2022-07-26T02:23:03.319Z,8.33
2022-07-26T02:25:33.866Z,7.95
2022-07-26T02:28:04.426Z,8.05
2022-07-26T02:30:35.144Z,6.75
2022-07-26T02:33:06.069Z,7.10
2022-07-26T02:35:37.223Z,7.92
2022-07-26T02:38:11.017Z,7.37
2022-07-26T02:40:42.455Z,7.55
2022-07-26T02:43:12.950Z,7.90
2022-07-26T02:45:43.395Z,7.42
2022-07-26T02:48:14.207Z,8.03
2022-07-26T02:50:44.634Z,8.08
2022-07-26T02:53:15.238Z,7.30
2022-07-26T02:55:45.642Z,8.20
2022-07-26T02:58:16.218Z,7.22
2022-07-26T03:00:46.589Z,7.33
2022-07-26T03:03:17.100Z,8.28
2022-07-26T03:05:47.653Z,8.18
2022-07-26T03:08:18.181Z,7.75
2022-07-26T03:10:48.718Z,7.30
2022-07-26T03:13:20.658Z,8.10
2022-07-26T03:15:51.210Z,6.62
2022-07-26T03:18:21.670Z,6.67
2022-07-26T03:20:52.311Z,6.67
2022-07-26T03:23:22.743Z,7.28
2022-07-26T03:25:53.703Z,6.92
2022-07-26T03:28:24.243Z,6.72
2022-07-26T03:30:54.796Z,6.40
2022-07-26T03:33:25.867Z,6.37
2022-07-26T03:35:56.314Z,5.80
2022-07-26T03:38:26.819Z,5.55
2022-07-26T03:40:57.829Z,6.20
2022-07-26T03:43:28.366Z,5.37
2022-07-26T03:45:58.889Z,5.33
2022-07-26T03:48:29.504Z,5.20
2022-07-26T03:51:00.315Z,5.92
2022-07-26T03:53:30.807Z,5.35
2022-07-26T03:56:19.252Z,5.37
2022-07-26T03:58:50.171Z,4.95
2022-07-26T04:01:20.771Z,4.70
2022-07-26T04:03:51.249Z,4.35
2022-07-26T04:06:23.128Z,4.37
2022-07-26T04:08:54.071Z,4.72
2022-07-26T04:11:26.529Z,4.25
2022-07-26T04:13:57.238Z,4.15
2022-07-26T04:16:28.072Z,4.20
2022-07-26T04:18:58.570Z,4.05
2022-07-26T04:21:29.076Z,4.65
2022-07-26T04:24:01.170Z,4.33
2022-07-26T04:26:32.667Z,4.37
2022-07-26T04:29:03.072Z,4.15
2022-07-26T04:31:36.264Z,4.17
2022-07-26T04:34:07.453Z,4.33
2022-07-26T04:36:38.942Z,4.60
2022-07-26T04:39:09.434Z,4.42
2022-07-26T04:41:39.887Z,3.80
2022-07-26T04:44:10.929Z,4.80
2022-07-26T04:46:44.981Z,4.25
2022-07-26T04:49:13.912Z,4.30
2022-07-26T04:51:44.450Z,4.28
2022-07-26T04:54:16.599Z,4.15
2022-07-26T04:56:47.616Z,4.60
2022-07-26T04:59:21.653Z,4.62
2022-07-26T05:01:50.579Z,4.78
2022-07-26T05:04:21.141Z,4.67
2022-07-26T05:06:51.509Z,4.65
2022-07-26T05:09:22.110Z,4.42
2022-07-26T05:11:52.525Z,4.10
2022-07-26T05:14:23.388Z,4.17
2022-07-26T05:16:53.955Z,4.37
2022-07-26T05:19:24.385Z,3.90
2022-07-26T05:21:54.818Z,3.83
2022-07-26T05:24:25.292Z,3.95
2022-07-26T05:26:58.646Z,4.20
2022-07-26T05:29:27.822Z,3.80
2022-07-26T05:31:58.310Z,3.50
2022-07-26T05:34:28.893Z,3.62
2022-07-26T05:36:59.751Z,4.15
2022-07-26T05:39:30.152Z,2.90
2022-07-26T05:42:00.605Z,3.95
2022-07-26T05:44:31.122Z,3.67
2022-07-26T05:47:01.588Z,3.62
2022-07-26T05:49:40.138Z,3.70
2022-07-26T05:52:06.030Z,3.10
2022-07-26T05:54:37.806Z,3.08
2022-07-26T05:57:08.277Z,2.90
2022-07-26T05:59:38.750Z,3.22
2022-07-26T06:02:11.313Z,3.22
2022-07-26T06:04:42.162Z,2.75
2022-07-26T06:07:13.652Z,2.62
2022-07-26T06:09:45.022Z,2.90
2022-07-26T06:12:15.590Z,2.70
2022-07-26T06:14:46.397Z,2.85
2022-07-26T06:17:19.878Z,2.90
2022-07-26T06:19:51.126Z,3.02
2022-07-26T06:22:23.202Z,2.60
2022-07-26T06:24:53.953Z,2.98
2022-07-26T06:27:24.429Z,2.62
2022-07-26T06:29:55.005Z,2.87
2022-07-26T06:32:25.672Z,2.67
2022-07-26T06:34:56.325Z,2.40
2022-07-26T06:37:26.825Z,2.27
2022-07-26T06:39:57.335Z,2.80
2022-07-26T06:42:27.871Z,2.87
2022-07-26T06:44:58.344Z,2.60
2022-07-26T06:47:29.035Z,2.65
2022-07-26T06:49:59.492Z,2.77
2022-07-26T06:52:30.096Z,2.92
2022-07-26T06:55:03.130Z,2.80
2022-07-26T06:57:33.567Z,2.90
2022-07-26T07:00:08.224Z,2.42
2022-07-26T07:02:38.801Z,2.40
2022-07-26T07:05:09.575Z,2.60
2022-07-26T07:07:42.720Z,2.60
2022-07-26T07:10:12.876Z,2.90
2022-07-26T07:12:44.910Z,2.85
2022-07-26T07:15:15.413Z,2.75
2022-07-26T07:17:48.086Z,3.20
2022-07-26T07:20:20.569Z,4.05
2022-07-26T07:22:52.633Z,3.12
2022-07-26T07:25:30.767Z,2.90
2022-07-26T07:27:55.365Z,2.67
2022-07-26T07:30:26.359Z,2.95
2022-07-26T07:32:59.946Z,2.85
2022-07-26T07:35:32.002Z,2.80
2022-07-26T07:38:02.440Z,2.50
2022-07-26T07:40:33.068Z,2.40
2022-07-26T07:43:04.283Z,2.40
2022-07-26T07:45:35.205Z,2.65
2022-07-26T07:48:07.419Z,2.92
2022-07-26T07:50:37.829Z,2.50
2022-07-26T07:53:08.359Z,2.33
2022-07-26T07:55:41.594Z,2.25
2022-07-26T07:58:10.861Z,2.35
2022-07-26T08:00:41.382Z,2.40
2022-07-26T08:03:11.896Z,2.27
2022-07-26T08:05:42.429Z,2.60
2022-07-26T08:08:12.806Z,2.37
2022-07-26T08:10:51.554Z,1.92
2022-07-26T08:13:16.938Z,2.27
2022-07-26T08:15:49.503Z,2.20
2022-07-26T08:18:22.320Z,2.37
2022-07-26T08:20:54.427Z,2.60
2022-07-26T08:23:25.304Z,2.40
2022-07-26T08:26:00.724Z,2.20
2022-07-26T08:28:46.666Z,2.17
2022-07-26T08:31:02.499Z,2.10
2022-07-26T08:33:33.656Z,2.22
2022-07-26T08:36:04.177Z,2.30
2022-07-26T08:38:34.823Z,2.30
2022-07-26T08:41:05.334Z,2.30
2022-07-26T08:43:51.086Z,2.27
2022-07-26T08:46:08.098Z,2.37
2022-07-26T08:48:39.437Z,2.45
2022-07-26T08:51:11.797Z,2.30
2022-07-26T08:53:42.329Z,2.25
2022-07-26T08:56:13.947Z,2.20
2022-07-26T08:58:45.753Z,2.00
2022-07-26T09:01:16.350Z,1.95
2022-07-26T09:03:47.388Z,2.25
2022-07-26T09:06:22.799Z,1.90
2022-07-26T09:08:55.081Z,1.85
2022-07-26T09:11:28.588Z,1.80
2022-07-26T09:14:01.595Z,2.10
2022-07-26T09:16:37.282Z,1.67
2022-07-26T09:19:21.750Z,1.82
2022-07-26T09:21:52.924Z,1.70
2022-07-26T09:24:35.126Z,1.85
2022-07-26T09:27:07.834Z,2.08
2022-07-26T09:29:51.492Z,1.80
2022-07-26T09:32:24.740Z,2.00
2022-07-26T09:34:58.973Z,1.80
2022-07-26T09:37:37.625Z,2.12
2022-07-26T09:40:16.441Z,2.10
2022-07-26T09:42:59.119Z,2.00
2022-07-26T09:45:32.795Z,2.10
2022-07-26T09:48:04.976Z,2.10
2022-07-26T09:50:35.482Z,2.10
2022-07-26T09:53:14.031Z,1.87
2022-07-26T09:55:50.622Z,2.12
2022-07-26T09:58:21.123Z,2.10
2022-07-26T10:00:52.121Z,1.95
2022-07-26T10:03:22.850Z,2.05
2022-07-26T10:05:53.875Z,2.22
2022-07-26T10:08:25.344Z,2.45
2022-07-26T10:11:05.289Z,1.72
2022-07-26T10:13:35.847Z,2.33
2022-07-26T10:16:07.923Z,1.95
2022-07-26T10:18:43.051Z,2.45
2022-07-26T10:21:21.051Z,2.40
2022-07-26T10:23:58.190Z,2.10
2022-07-26T10:26:37.677Z,2.02
2022-07-26T10:29:26.454Z,2.40
2022-07-26T10:32:03.329Z,1.95
2022-07-26T10:34:37.556Z,2.20
2022-07-26T10:37:10.989Z,2.12
2022-07-26T10:39:41.518Z,2.10
2022-07-26T10:42:12.293Z,2.30
2022-07-26T10:44:45.827Z,2.10
2022-07-26T10:47:18.700Z,2.25
2022-07-26T10:49:57.643Z,2.08
2022-07-26T10:52:29.938Z,2.33
2022-07-26T10:55:07.872Z,2.25
2022-07-26T10:57:43.204Z,1.87
2022-07-26T11:00:22.608Z,2.20
2022-07-26T11:03:00.545Z,1.70
2022-07-26T11:05:34.728Z,2.20
2022-07-26T11:08:10.298Z,2.08
2022-07-26T11:10:43.406Z,2.42
2022-07-26T11:13:19.786Z,2.22
2022-07-26T11:15:54.220Z,1.90
2022-07-26T11:18:31.434Z,2.47
2022-07-26T11:21:16.761Z,2.30
2022-07-26T11:23:50.660Z,2.08
2022-07-26T11:26:23.537Z,2.30
2022-07-26T11:29:06.254Z,2.00
2022-07-26T11:31:50.329Z,2.10
2022-07-26T11:34:27.964Z,2.00
2022-07-26T11:37:02.593Z,2.00
2022-07-26T11:39:35.295Z,1.85
2022-07-26T11:42:08.406Z,2.17
2022-07-26T11:44:40.895Z,2.12
2022-07-26T11:47:16.536Z,2.20
2022-07-26T11:50:00.121Z,2.22
2022-07-26T11:52:25.466Z,2.40
2022-07-26T11:54:54.761Z,2.52
2022-07-26T11:57:33.034Z,2.50
2022-07-26T12:00:06.579Z,2.20
2022-07-26T12:02:37.026Z,2.42
2022-07-26T12:05:22.101Z,2.05
2022-07-26T12:08:03.550Z,2.52
2022-07-26T12:10:34.988Z,2.22
2022-07-26T12:13:16.141Z,2.70
2022-07-26T12:15:52.664Z,2.08
2022-07-26T12:18:31.613Z,7.72
2022-07-26T12:21:07.556Z,4.62
2022-07-26T12:23:48.956Z,2.72
2022-07-26T12:26:24.819Z,2.60
2022-07-26T12:28:56.673Z,3.17
2022-07-26T12:31:29.897Z,2.83
2022-07-26T12:34:00.868Z,3.00
2022-07-26T12:36:34.226Z,2.75
2022-07-26T12:39:06.009Z,3.75
2022-07-26T12:41:38.470Z,3.10
2022-07-26T12:44:11.586Z,3.05
2022-07-26T12:46:44.475Z,3.40
2022-07-26T12:49:15.079Z,3.20
2022-07-26T12:51:45.497Z,3.00
2022-07-26T12:54:16.066Z,2.60
2022-07-26T12:56:46.582Z,2.90
2022-07-26T12:59:18.701Z,2.70
2022-07-26T13:01:49.181Z,2.33
2022-07-26T13:04:20.071Z,2.40
2022-07-26T13:06:50.629Z,2.60
2022-07-26T13:09:21.181Z,2.55
2022-07-26T13:11:51.822Z,2.60
2022-07-26T13:14:22.355Z,2.80
2022-07-26T13:16:53.248Z,2.70
2022-07-26T13:19:24.051Z,2.75
2022-07-26T13:21:54.545Z,2.77
2022-07-26T13:24:26.316Z,2.15
2022-07-26T13:26:58.905Z,2.60
2022-07-26T13:29:30.937Z,2.20
2022-07-26T13:32:01.552Z,2.10
2022-07-26T13:34:35.066Z,2.10
2022-07-26T13:37:08.224Z,2.20
2022-07-26T13:39:36.795Z,2.37
2022-07-26T13:42:07.372Z,2.00
2022-07-26T13:44:37.830Z,2.20
2022-07-26T13:47:08.341Z,1.92
2022-07-26T13:49:38.939Z,2.12
2022-07-26T13:52:13.628Z,2.37
2022-07-26T13:54:41.645Z,2.20
2022-07-26T13:57:12.078Z,1.90
2022-07-26T13:59:42.457Z,2.00
2022-07-26T14:02:13.048Z,1.90
2022-07-26T14:04:43.719Z,1.82
2022-07-26T14:07:14.285Z,2.00
2022-07-26T14:09:44.642Z,1.90
2022-07-26T14:12:15.952Z,2.00
2022-07-26T14:14:46.554Z,2.30
2022-07-26T14:17:17.047Z,2.05
2022-07-26T14:19:47.484Z,2.12
2022-07-26T14:22:18.072Z,2.37
2022-07-26T14:24:48.654Z,2.37
2022-07-26T14:27:19.187Z,2.15
2022-07-26T14:29:49.954Z,2.20
2022-07-26T14:32:22.123Z,2.58
2022-07-26T14:34:52.946Z,2.42
2022-07-26T14:37:42.198Z,2.50
2022-07-26T14:39:55.982Z,2.70
2022-07-26T14:42:26.509Z,2.62
2022-07-26T14:44:56.955Z,2.25
2022-07-26T14:47:27.386Z,2.20
2022-07-26T14:50:00.576Z,2.10
2022-07-26T14:52:30.011Z,2.30
2022-07-26T14:55:00.492Z,2.20
2022-07-26T14:57:31.292Z,2.47
2022-07-26T15:00:01.911Z,2.25
2022-07-26T15:02:32.655Z,2.47
2022-07-26T15:05:03.215Z,2.10
2022-07-26T15:07:34.160Z,2.10
2022-07-26T15:10:06.674Z,2.10
2022-07-26T15:12:38.040Z,2.08
2022-07-26T15:15:09.985Z,1.90
2022-07-26T15:17:40.447Z,1.70
2022-07-26T15:20:11.060Z,1.70
2022-07-26T15:22:41.670Z,1.87
2022-07-26T15:25:12.125Z,2.05
2022-07-26T15:27:43.765Z,1.75
2022-07-26T15:30:15.933Z,1.62
2022-07-26T15:32:46.942Z,1.70
2022-07-26T15:35:18.221Z,1.60
2022-07-26T15:37:48.570Z,1.60
2022-07-26T15:40:20.758Z,1.67
2022-07-26T15:42:52.175Z,1.50
2022-07-26T15:45:24.904Z,1.50
2022-07-26T15:48:04.575Z,1.82
2022-07-26T15:50:29.934Z,1.30
2022-07-26T15:53:00.439Z,1.65
2022-07-26T15:55:30.910Z,1.60
2022-07-26T15:58:01.437Z,1.30
2022-07-26T16:00:32.168Z,1.42
2022-07-26T16:03:02.651Z,1.37
2022-07-26T16:05:34.684Z,1.40
2022-07-26T16:08:05.347Z,1.22
2022-07-26T16:10:35.921Z,1.27
2022-07-26T16:13:06.689Z,1.32
2022-07-26T16:15:37.453Z,1.30
2022-07-26T16:18:08.102Z,1.40
2022-07-26T16:20:38.529Z,1.00
2022-07-26T16:23:09.745Z,1.20
2022-07-26T16:25:40.202Z,1.00
2022-07-26T16:28:10.641Z,1.20
2022-07-26T16:30:41.981Z,1.07
2022-07-26T16:33:12.719Z,0.90
2022-07-26T16:35:43.457Z,1.00
2022-07-26T16:38:13.914Z,1.10
2022-07-26T16:40:44.660Z,1.10
2022-07-26T16:43:15.287Z,1.05
2022-07-26T16:45:45.750Z,1.22
2022-07-26T16:48:17.041Z,1.15
2022-07-26T16:50:47.610Z,1.00
2022-07-26T16:53:18.097Z,0.90
2022-07-26T16:55:50.254Z,1.20
2022-07-26T16:58:21.416Z,0.93
2022-07-26T17:00:51.937Z,0.85
2022-07-26T17:03:25.974Z,1.00
2022-07-26T17:05:56.460Z,1.12
2022-07-26T17:08:26.929Z,1.10
2022-07-26T17:10:58.093Z,1.10
2022-07-26T17:13:28.475Z,1.20
2022-07-26T17:16:00.379Z,1.30
2022-07-26T17:18:30.866Z,1.10
2022-07-26T17:21:01.937Z,1.10
2022-07-26T17:23:32.564Z,1.27
2022-07-26T17:26:03.923Z,1.72
2022-07-26T17:28:34.436Z,1.10
2022-07-26T17:31:05.134Z,1.17
2022-07-26T17:33:35.558Z,1.10
2022-07-26T17:36:23.516Z,1.10
2022-07-26T17:38:54.828Z,1.37
2022-07-26T17:41:32.650Z,1.15
2022-07-26T17:43:58.901Z,1.10
2022-07-26T17:46:31.404Z,0.98
2022-07-26T17:49:02.391Z,1.07
2022-07-26T17:51:33.324Z,1.10
2022-07-26T17:54:03.993Z,1.00
2022-07-26T17:56:36.806Z,1.10
2022-07-26T17:59:08.599Z,1.30
2022-07-26T18:01:39.341Z,0.90
2022-07-26T18:04:11.411Z,1.12
2022-07-26T18:06:42.421Z,1.30
2022-07-26T18:09:14.150Z,1.10
2022-07-26T18:11:44.893Z,1.30
2022-07-26T18:14:15.340Z,1.67
2022-07-26T18:16:47.579Z,1.00
2022-07-26T18:19:20.290Z,1.40
2022-07-26T18:21:51.527Z,1.00
2022-07-26T18:24:23.590Z,1.20
2022-07-26T18:26:54.131Z,1.02
2022-07-26T18:29:24.604Z,1.35
2022-07-26T18:31:55.095Z,1.27
2022-07-26T18:34:25.654Z,1.20
2022-07-26T18:36:56.176Z,1.20
2022-07-26T18:39:32.849Z,1.32
2022-07-26T18:41:58.792Z,1.17
2022-07-26T18:44:29.515Z,0.90
2022-07-26T18:47:00.531Z,1.27
2022-07-26T18:49:33.193Z,1.37
2022-07-26T18:52:08.323Z,1.20
2022-07-26T18:54:37.732Z,1.57
2022-07-26T18:57:08.163Z,1.10
2022-07-26T18:59:38.751Z,1.10
2022-07-26T19:02:10.240Z,1.30
2022-07-26T19:04:40.736Z,1.17
2022-07-26T19:07:11.106Z,1.15
2022-07-26T19:09:41.530Z,1.40
2022-07-26T19:12:12.056Z,1.55
2022-07-26T19:14:42.594Z,1.40
2022-07-26T19:17:13.023Z,1.27
2022-07-26T19:19:43.681Z,1.40
2022-07-26T19:22:14.731Z,1.50
2022-07-26T19:24:45.122Z,1.27
2022-07-26T19:27:15.557Z,1.25
2022-07-26T19:29:46.235Z,1.62
2022-07-26T19:32:16.928Z,1.40
2022-07-26T19:34:47.440Z,1.20
2022-07-26T19:37:20.380Z,1.50
2022-07-26T19:39:52.547Z,1.27
2022-07-26T19:42:23.224Z,1.10
2022-07-26T19:44:53.854Z,1.50
2022-07-26T19:47:24.482Z,1.45
2022-07-26T19:49:55.136Z,1.40
2022-07-26T19:52:25.570Z,1.02
2022-07-26T19:54:56.055Z,1.30
2022-07-26T19:57:26.510Z,1.60
2022-07-26T19:59:57.123Z,1.50
2022-07-26T20:02:28.253Z,1.40
2022-07-26T20:04:59.193Z,1.30
2022-07-26T20:07:29.863Z,1.62
2022-07-26T20:10:00.424Z,1.75
2022-07-26T20:12:30.919Z,1.50
2022-07-26T20:15:01.837Z,1.27
2022-07-26T20:17:33.949Z,1.40
2022-07-26T20:20:06.473Z,1.30
2022-07-26T20:22:37.386Z,1.50
2022-07-26T20:25:08.709Z,1.62
2022-07-26T20:27:39.549Z,1.77
2022-07-26T20:30:11.136Z,1.50
2022-07-26T20:32:41.606Z,1.50
2022-07-26T20:35:12.284Z,1.82
2022-07-26T20:37:43.526Z,1.60
2022-07-26T20:40:15.556Z,2.25
2022-07-26T20:42:47.568Z,1.72
2022-07-26T20:45:18.953Z,1.60
2022-07-26T20:47:49.438Z,1.75
2022-07-26T20:50:20.490Z,1.80
2022-07-26T20:52:51.196Z,1.70
2022-07-26T20:55:22.939Z,1.77
2022-07-26T20:57:53.353Z,1.92
2022-07-26T21:00:24.947Z,1.80
2022-07-26T21:02:57.265Z,1.70
2022-07-26T21:05:32.379Z,1.70
2022-07-26T21:08:01.271Z,1.60
2022-07-26T21:10:31.982Z,1.80
2022-07-26T21:13:02.680Z,2.00
2022-07-26T21:15:33.277Z,2.07
2022-07-26T21:18:03.720Z,2.12
2022-07-26T21:20:34.481Z,1.92
2022-07-26T21:23:16.792Z,2.13
2022-07-26T21:25:37.479Z,2.12
2022-07-26T21:28:08.219Z,1.60
2022-07-26T21:30:38.753Z,2.35
2022-07-26T21:33:09.243Z,2.42
2022-07-26T21:35:43.915Z,1.82
2022-07-26T21:38:14.403Z,1.50
2022-07-26T21:40:45.581Z,1.80
2022-07-26T21:43:16.354Z,2.10
2022-07-26T21:45:46.907Z,1.50
2022-07-26T21:48:17.810Z,2.00
2022-07-26T21:50:48.597Z,2.00
2022-07-26T21:53:19.079Z,2.00
2022-07-26T21:55:49.497Z,1.82
2022-07-26T21:58:19.898Z,2.08
2022-07-26T22:00:50.746Z,2.10
2022-07-26T22:03:24.243Z,1.80
2022-07-26T22:05:54.607Z,1.70
2022-07-26T22:08:25.136Z,1.30
2022-07-26T22:10:55.659Z,1.45
2022-07-26T22:13:26.214Z,1.77
2022-07-26T22:15:56.893Z,1.35
2022-07-26T22:18:27.969Z,1.70
2022-07-26T22:21:01.020Z,1.62
2022-07-26T22:23:31.592Z,1.50
2022-07-26T22:26:05.064Z,1.92
2022-07-26T22:28:35.709Z,1.82
2022-07-26T22:31:06.185Z,1.80
2022-07-26T22:33:36.655Z,1.50
2022-07-26T22:36:09.126Z,1.57
2022-07-26T22:38:39.864Z,1.70
2022-07-26T22:41:11.140Z,1.60
2022-07-26T22:43:41.947Z,1.90
2022-07-26T22:46:12.486Z,1.60
2022-07-26T22:48:48.073Z,1.65
2022-07-26T22:51:16.918Z,1.40
2022-07-26T22:53:47.386Z,1.82
2022-07-26T22:56:19.967Z,1.47
2022-07-26T22:58:50.342Z,1.52
2022-07-26T23:01:20.831Z,1.50
2022-07-26T23:03:51.976Z,1.67
2022-07-26T23:06:31.310Z,1.92
2022-07-26T23:08:55.011Z,1.55
2022-07-26T23:11:25.433Z,2.10
2022-07-26T23:13:59.194Z,1.80
2022-07-26T23:16:28.441Z,1.80
2022-07-26T23:18:59.549Z,1.72
2022-07-26T23:21:29.973Z,2.00
2022-07-26T23:24:00.403Z,2.00
2022-07-26T23:26:30.874Z,2.20
2022-07-26T23:29:01.260Z,2.60
2022-07-26T23:31:31.778Z,1.80
2022-07-26T23:34:02.358Z,1.42
2022-07-26T23:36:32.988Z,1.52
2022-07-26T23:39:04.290Z,1.72
2022-07-26T23:41:36.015Z,2.05
2022-07-26T23:44:06.546Z,1.80
2022-07-26T23:46:37.089Z,1.70
2022-07-26T23:49:07.798Z,1.70
2022-07-26T23:51:38.847Z,1.80
2022-07-26T23:54:09.282Z,1.77
2022-07-26T23:56:39.659Z,2.00
2022-07-26T23:59:10.350Z,1.47
